Peter J — WDJ2317 — position and weather

sailwx.info

Track history (hours):
 
Tides and Currents Weather Stations Pressure Air Temp Water Temp Dewpoint Dewpoint Depression Visibility Wind Speed Wind Dir Waves Ship Positions

Peter J

Owner: CUSTOM FUEL SERVICES LLC, NASHVILLE, TN. More information available from US FCC via Universal Licensing System and Coast Guard Vessel Documentation Center.

Last reported at 2017-Nov-17 12:39 UTC. Time now 2017-Nov-24 05:52 UTC.
Position N 30°03' W 090°33'.

Length 17 m; draft 2.7 m.

Type: Towing. MMSI: 366961550.

Date/timePositionNaut miles runAvg speedWind from/ knotsBaromVisibWave heightAir tempDewpointWater temp
2017-Nov-17 12:39N 30°03' W 090°33'0 0.1
2017-Nov-17 12:27N 30°03' W 090°33'1 1.2
2017-Nov-17 11:57N 30°03' W 090°32'0 0.0
2017-Nov-17 11:14N 30°03' W 090°32'0 0.0
2017-Nov-17 10:56N 30°03' W 090°32'0 0.0
2017-Nov-17 10:30N 30°03' W 090°32'0 0.0
2017-Nov-17 09:50N 30°03' W 090°32'0 0.0
2017-Nov-17 09:30N 30°03' W 090°32'0 0.0
2017-Nov-17 08:59N 30°03' W 090°32'0 0.0
2017-Nov-17 07:31N 30°03' W 090°32'0 0.0
2017-Nov-17 07:28N 30°03' W 090°32'0 0.0
2017-Nov-17 06:53N 30°03' W 090°32'0 0.0
2017-Nov-17 06:30N 30°03' W 090°32'0 0.0
2017-Nov-17 06:00N 30°03' W 090°32'0 0.0
2017-Nov-15 10:21N 30°03' W 090°33'0 0.6
2017-Nov-15 09:59N 30°03' W 090°32'0 0.0
2017-Nov-15 08:36N 30°03' W 090°32'0 0.0
2017-Nov-15 08:27N 30°03' W 090°32'6 4.3
2017-Nov-15 07:02N 29°60' W 090°26'0 5.7
2017-Nov-15 07:00N 29°60' W 090°26'  
2017-Nov-08 06:09N 29°57' W 090°22'1 2.4
2017-Nov-08 05:56N 29°57' W 090°22'  
Track history (hours):
 
Tides and Currents Weather Stations Pressure Air Temp Water Temp Dewpoint Dewpoint Depression Visibility Wind Speed Wind Dir Waves Ship Positions

Peter J

Owner: CUSTOM FUEL SERVICES LLC, NASHVILLE, TN. More information available from US FCC via Universal Licensing System and Coast Guard Vessel Documentation Center.

Last reported at 2017-Nov-17 12:39 UTC. Time now 2017-Nov-24 05:52 UTC.
Position N 30°03' W 090°33'.

Length 17 m; draft 2.7 m.

Type: Towing. MMSI: 366961550.

Date/timePositionNaut miles runAvg speedWind from/ knotsBaromVisibWave heightAir tempDewpointWater temp
2017-Nov-17 12:39N 30°03' W 090°33'0 0.1
2017-Nov-17 12:27N 30°03' W 090°33'1 1.2
2017-Nov-17 11:57N 30°03' W 090°32'0 0.0
2017-Nov-17 11:14N 30°03' W 090°32'0 0.0
2017-Nov-17 10:56N 30°03' W 090°32'0 0.0
2017-Nov-17 10:30N 30°03' W 090°32'0 0.0
2017-Nov-17 09:50N 30°03' W 090°32'0 0.0
2017-Nov-17 09:30N 30°03' W 090°32'0 0.0
2017-Nov-17 08:59N 30°03' W 090°32'0 0.0
2017-Nov-17 07:31N 30°03' W 090°32'0 0.0
2017-Nov-17 07:28N 30°03' W 090°32'0 0.0
2017-Nov-17 06:53N 30°03' W 090°32'0 0.0
2017-Nov-17 06:30N 30°03' W 090°32'0 0.0
2017-Nov-17 06:00N 30°03' W 090°32'0 0.0
2017-Nov-15 10:21N 30°03' W 090°33'0 0.6
2017-Nov-15 09:59N 30°03' W 090°32'0 0.0
2017-Nov-15 08:36N 30°03' W 090°32'0 0.0
2017-Nov-15 08:27N 30°03' W 090°32'6 4.3
2017-Nov-15 07:02N 29°60' W 090°26'0 5.7
2017-Nov-15 07:00N 29°60' W 090°26'  
2017-Nov-08 06:09N 29°57' W 090°22'1 2.4
2017-Nov-08 05:56N 29°57' W 090°22'  

Dump ship's entire track history